Time;durP1;ratioP1;P1;durP2;ratioP2;P2;SDS_P1;SDS_P2;PMS_P1;PMS_P2;Temp;Humidity;BMP_temperature;BMP_pressure;BME280_temperature;BME280_humidity;BME280_pressure;Samples;Min_cycle;Max_cycle;Signal;HPM_P1;HPM_P2
2022/09/04 00:00:33;;;;;;;5.32;4.20;;;17.50;99.90;;;-141.84;54.25;20931.78;5051674;28;20185;-59
2022/09/04 00:03:19;;;;;;;5.85;4.07;;;17.40;99.90;;;-141.84;54.82;20880.97;5051990;28;20288;-61
2022/09/04 00:05:53;;;;;;;5.22;4.10;;;17.30;99.90;;;-141.84;54.75;20883.00;5051355;28;20316;-60
2022/09/04 00:08:45;;;;;;;4.75;4.25;;;17.20;99.90;;;-141.84;54.66;20883.00;5051433;28;20249;-60
2022/09/04 00:11:35;;;;;;;6.93;4.10;;;17.20;99.90;;;-141.84;54.42;20885.03;5051363;28;20594;-60
2022/09/04 00:14:10;;;;;;;4.70;4.20;;;17.20;99.90;;;-141.84;54.82;20862.69;5050529;28;20229;-60
2022/09/04 00:16:46;;;;;;;4.90;3.95;;;17.30;99.90;;;-141.84;54.98;20866.75;5049244;28;20339;-60
2022/09/04 00:19:26;;;;;;;5.97;3.78;;;17.20;99.90;;;-141.84;54.95;20842.34;5042354;28;20222;-60
2022/09/04 00:21:59;;;;;;;6.00;4.40;;;17.20;99.90;;;-141.84;54.19;20925.69;5043744;28;20668;-60
2022/09/04 00:24:35;;;;;;;4.70;4.20;;;17.30;99.90;;;-141.84;54.60;20895.19;5051491;28;20309;-59
2022/09/04 00:27:14;;;;;;;5.47;4.30;;;17.30;99.90;;;-141.84;54.67;20891.13;5051080;28;20205;-59
2022/09/04 00:29:54;;;;;;;4.55;4.15;;;17.30;99.90;;;-141.84;54.95;20870.81;5050995;28;20248;-58
2022/09/04 00:32:38;;;;;;;6.07;4.28;;;17.30;99.90;;;-141.84;54.61;20876.91;5051063;28;20307;-60
2022/09/04 00:35:14;;;;;;;4.78;4.28;;;17.30;99.90;;;-141.84;54.93;20850.47;5050366;28;20229;-60
2022/09/04 00:37:50;;;;;;;6.35;4.15;;;17.20;99.90;;;-141.84;55.07;20885.03;5051147;28;20303;-60
2022/09/04 00:40:27;;;;;;;6.40;4.30;;;17.20;99.90;;;-141.84;54.80;20872.84;5050883;28;20252;-59
2022/09/04 00:43:37;;;;;;;5.22;4.22;;;17.30;99.90;;;-141.84;55.16;20901.31;5050979;28;20278;-59
2022/09/04 00:46:27;;;;;;;4.90;4.30;;;17.30;99.90;;;-141.84;55.56;20870.81;5050936;28;20217;-59
2022/09/04 00:49:56;;;;;;;4.45;4.07;;;17.20;99.90;;;-141.84;55.89;20878.94;5050776;28;20225;-61
2022/09/04 00:52:53;;;;;;;5.88;4.45;;;17.10;99.90;;;-141.84;55.44;20846.41;5037162;28;20233;-60
2022/09/04 00:55:49;;;;;;;5.25;4.53;;;17.10;99.90;;;-141.84;55.59;20862.69;5030930;28;20713;-60
2022/09/04 00:58:47;;;;;;;4.95;4.45;;;17.10;99.90;;;-141.84;55.96;20832.19;5044988;28;20227;-60
2022/09/04 01:01:23;;;;;;;6.30;4.45;;;17.10;99.90;;;-141.84;56.37;20826.09;5050296;28;20328;-60
2022/09/04 01:04:23;;;;;;;4.70;4.30;;;17.00;99.90;;;-141.84;56.56;20795.59;5050913;28;20185;-60
2022/09/04 01:07:21;;;;;;;6.85;4.35;;;16.90;99.90;;;-141.84;56.83;20773.22;5050873;28;20268;-60
2022/09/04 01:10:29;;;;;;;5.35;3.85;;;16.90;99.90;;;-141.84;56.48;20840.31;5050555;28;20300;-61
2022/09/04 01:13:07;;;;;;;5.65;4.50;;;16.90;99.90;;;-141.84;56.42;20846.41;5050271;28;20239;-62
2022/09/04 01:15:45;;;;;;;4.82;4.32;;;16.90;99.90;;;-141.84;56.49;20836.25;5050743;28;20632;-61
2022/09/04 01:18:23;;;;;;;5.18;4.35;;;16.90;99.90;;;-141.84;56.60;20828.13;5050955;28;20723;-60
2022/09/04 01:21:32;;;;;;;4.75;4.35;;;16.90;99.90;;;-141.84;56.54;20826.09;5050663;28;20718;-60
2022/09/04 01:24:34;;;;;;;5.35;4.80;;;16.90;99.90;;;-141.84;56.70;20777.28;5050091;28;20228;-60
2022/09/04 01:27:15;;;;;;;5.45;4.50;;;16.90;99.90;;;-141.84;56.57;20826.09;5050729;28;20688;-60
2022/09/04 01:30:01;;;;;;;4.53;4.10;;;16.90;99.90;;;-141.84;56.87;20828.13;5050310;28;20712;-60
2022/09/04 01:32:48;;;;;;;5.28;4.78;;;16.90;99.90;;;-141.84;57.20;20789.50;5050408;28;20303;-60
2022/09/04 01:35:33;;;;;;;5.57;4.10;;;16.80;99.90;;;-141.84;57.22;20795.59;5050697;28;20313;-60
2022/09/04 01:38:13;;;;;;;4.45;3.92;;;16.80;99.90;;;-141.84;57.36;20799.66;5050460;28;20259;-61
2022/09/04 01:40:51;;;;;;;4.72;4.30;;;16.80;99.90;;;-141.84;57.26;20795.59;5050388;28;20233;-61
2022/09/04 01:43:22;;;;;;;5.78;5.00;;;16.80;99.90;;;-141.84;57.76;20767.13;5050087;28;20620;-61
2022/09/04 01:46:21;;;;;;;5.93;4.57;;;16.80;99.90;;;-141.84;57.29;20801.69;5050351;28;20186;-60
2022/09/04 01:48:59;;;;;;;4.95;4.43;;;16.80;99.90;;;-141.84;57.04;20817.94;5049984;28;20288;-60
2022/09/04 01:51:38;;;;;;;6.13;4.07;;;16.80;99.90;;;-141.84;57.36;20809.81;5054695;28;20232;-60
2022/09/04 01:54:36;;;;;;;6.97;4.80;;;16.80;99.90;;;-141.84;57.38;20781.38;5064828;28;20204;-61
2022/09/04 01:57:23;;;;;;;4.80;4.38;;;16.80;99.90;;;-141.84;57.31;20783.41;5069769;28;20226;-61
2022/09/04 02:00:06;;;;;;;5.20;4.25;;;16.80;99.90;;;-141.84;57.80;20838.28;5053633;28;20312;-59
2022/09/04 02:02:53;;;;;;;5.63;4.57;;;16.80;99.90;;;-141.84;57.91;20761.03;5053811;28;20236;-61
2022/09/04 02:05:31;;;;;;;4.93;4.43;;;16.80;99.90;;;-141.84;58.02;20783.41;5053670;28;20255;-60
2022/09/04 02:08:21;;;;;;;4.88;4.15;;;16.80;99.90;;;-141.84;57.25;20860.66;5053686;28;20319;-61
2022/09/04 02:10:59;;;;;;;4.85;4.45;;;16.80;99.90;;;-141.84;57.50;20777.28;5053838;28;20316;-59
2022/09/04 02:13:42;;;;;;;6.15;4.95;;;16.80;99.90;;;-141.84;58.21;20785.44;5053599;28;20221;-59
2022/09/04 02:16:21;;;;;;;5.65;4.40;;;16.70;99.90;;;-141.84;57.57;20793.56;5053799;28;20232;-60
2022/09/04 02:19:06;;;;;;;7.63;4.40;;;16.80;99.90;;;-141.84;57.63;20785.44;5053445;28;20270;-60
2022/09/04 02:21:43;;;;;;;5.63;4.97;;;16.70;99.90;;;-141.84;58.12;20789.50;5054399;28;20185;-61
2022/09/04 02:24:26;;;;;;;5.13;4.55;;;16.70;99.90;;;-141.84;58.17;20752.91;5053677;28;20244;-59
2022/09/04 02:27:05;;;;;;;5.65;4.43;;;16.70;99.90;;;-141.84;58.65;20746.81;5053345;28;20232;-60
2022/09/04 02:29:47;;;;;;;5.55;4.68;;;16.60;99.90;;;-141.84;58.39;20742.75;5053147;28;20256;-60
2022/09/04 02:32:25;;;;;;;5.75;4.65;;;16.70;99.90;;;-141.84;58.16;20793.56;5053427;28;20229;-59
2022/09/04 02:35:07;;;;;;;5.18;4.68;;;16.70;99.90;;;-141.84;58.40;20771.19;5053319;28;20316;-60
2022/09/04 02:37:51;;;;;;;5.10;4.60;;;16.60;99.90;;;-141.84;58.67;20746.81;5053602;28;20227;-61
2022/09/04 02:40:29;;;;;;;5.85;4.60;;;16.60;99.90;;;-141.84;58.15;20775.25;5053234;28;20237;-60
2022/09/04 02:43:21;;;;;;;4.90;4.40;;;16.70;99.90;;;-141.84;57.69;20803.72;5053099;28;20308;-59
2022/09/04 02:46:00;;;;;;;5.30;4.72;;;16.70;99.90;;;-141.84;58.02;20765.09;5053303;28;20208;-59
2022/09/04 02:48:54;;;;;;;6.50;4.70;;;16.70;99.90;;;-141.84;57.99;20765.09;5053195;28;20193;-60
2022/09/04 02:51:46;;;;;;;5.15;4.43;;;16.80;99.90;;;-141.84;57.98;20777.28;5053335;28;20200;-59
2022/09/04 02:54:33;;;;;;;5.72;4.80;;;16.70;99.90;;;-141.84;57.80;20799.66;5065067;28;20209;-60
2022/09/04 02:57:14;;;;;;;5.85;4.65;;;16.80;99.90;;;-141.84;58.30;20771.19;5069235;28;20280;-61
2022/09/04 02:59:58;;;;;;;6.03;5.10;;;16.80;99.90;;;-141.84;58.28;20742.75;5051540;28;20233;-61
2022/09/04 03:02:34;;;;;;;4.97;4.47;;;16.70;99.90;;;-141.84;58.42;20767.13;5052956;28;20225;-60
2022/09/04 03:05:14;;;;;;;6.30;4.70;;;16.70;99.90;;;-141.84;57.72;20795.59;5052513;28;20231;-60
2022/09/04 03:07:53;;;;;;;5.75;5.18;;;16.70;99.90;;;-141.84;58.29;20765.09;5052768;28;20248;-60
2022/09/04 03:10:31;;;;;;;6.85;4.90;;;16.70;99.90;;;-141.84;58.84;20746.81;5052689;28;20311;-60
2022/09/04 03:13:08;;;;;;;5.78;4.97;;;16.70;99.90;;;-141.84;58.70;20718.34;5052349;28;20309;-59
2022/09/04 03:15:44;;;;;;;6.18;4.70;;;16.60;99.90;;;-141.84;58.58;20787.47;5052514;28;20235;-61
2022/09/04 03:18:23;;;;;;;5.93;5.03;;;16.60;99.90;;;-141.84;57.94;20809.81;5053381;28;20181;-60
2022/09/04 03:20:59;;;;;;;6.53;5.88;;;16.80;99.90;;;-141.84;58.16;20754.94;5032568;28;20222;-60
2022/09/04 03:23:42;;;;;;;5.40;4.90;;;16.70;99.90;;;-141.84;58.77;20750.88;5032601;28;20308;-62
2022/09/04 03:26:24;;;;;;;7.18;5.25;;;16.70;99.90;;;-141.84;58.40;20769.16;5032477;28;20256;-60
2022/09/04 03:29:08;;;;;;;5.72;5.10;;;16.70;99.90;;;-141.84;58.65;20752.91;5032265;28;20781;-59
2022/09/04 03:31:49;;;;;;;6.53;5.38;;;16.60;99.90;;;-141.84;58.51;20767.13;5032461;28;20801;-60
2022/09/04 03:34:34;;;;;;;6.38;5.38;;;16.60;99.90;;;-141.84;59.11;20740.69;5032197;28;20305;-60
2022/09/04 03:37:32;;;;;;;5.65;5.13;;;16.60;99.90;;;-141.84;59.26;20714.28;5032313;28;20228;-60
2022/09/04 03:40:33;;;;;;;6.00;5.00;;;16.50;99.90;;;-141.84;59.50;20710.22;5047805;28;20233;-60
2022/09/04 03:43:23;;;;;;;5.93;4.95;;;16.40;99.90;;;-141.84;59.20;20712.25;5051847;28;20225;-60
2022/09/04 03:46:03;;;;;;;6.60;5.78;;;16.50;99.90;;;-141.84;58.90;20732.56;5051400;28;20288;-61
2022/09/04 03:48:51;;;;;;;5.35;4.90;;;16.50;99.90;;;-141.84;58.99;20718.34;5049798;28;20673;-59
2022/09/04 03:51:36;;;;;;;7.30;5.60;;;16.50;99.90;;;-141.84;59.52;20738.66;5032089;28;20627;-60
2022/09/04 03:54:27;;;;;;;5.72;5.03;;;16.40;99.90;;;-141.84;59.72;20698.00;5052853;28;20288;-60
2022/09/04 03:57:20;;;;;;;5.60;5.10;;;16.30;99.90;;;-141.84;60.70;20671.59;5068237;28;20756;-62
2022/09/04 04:00:05;;;;;;;7.07;5.78;;;16.20;99.90;;;-141.84;60.90;20624.84;5051427;28;20255;-61
2022/09/04 04:03:01;;;;;;;6.65;5.68;;;16.10;99.90;;;-141.84;60.55;20645.16;5051630;28;20225;-60
2022/09/04 04:05:42;;;;;;;5.97;5.28;;;16.10;99.90;;;-141.84;61.41;20643.13;5051363;28;20229;-59
2022/09/04 04:08:37;;;;;;;6.10;5.50;;;16.00;99.90;;;-141.84;62.03;20576.03;5051390;28;20316;-60
2022/09/04 04:11:35;;;;;;;6.10;5.50;;;15.80;99.90;;;-141.84;61.42;20608.56;5051283;28;20304;-60
2022/09/04 04:14:51;;;;;;;7.47;5.80;;;15.90;99.90;;;-141.84;61.66;20610.59;5051532;28;20609;-61
2022/09/04 04:17:43;;;;;;;9.93;6.15;;;15.90;99.90;;;-141.84;61.34;20665.50;5048552;28;20311;-59
2022/09/04 04:20:30;;;;;;;6.28;5.68;;;15.80;99.90;;;-141.84;61.85;20614.66;5050815;28;20656;-61
2022/09/04 04:23:37;;;;;;;6.22;5.63;;;15.80;99.90;;;-141.84;61.95;20614.66;5050940;28;20228;-60
2022/09/04 04:26:21;;;;;;;8.70;6.63;;;15.80;99.90;;;-141.84;61.89;20618.72;5051126;28;20304;-63
2022/09/04 04:29:14;;;;;;;6.87;6.10;;;15.80;99.90;;;-141.84;62.08;20574.00;5051135;28;20312;-63
2022/09/04 04:32:10;;;;;;;7.90;6.30;;;15.80;99.90;;;-141.84;61.89;20602.47;5051049;28;20225;-62
2022/09/04 04:35:00;;;;;;;7.63;6.13;;;15.80;99.90;;;-141.84;62.00;20618.72;5050611;28;20235;-65
2022/09/04 04:37:45;;;;;;;6.53;5.80;;;15.80;99.90;;;-141.84;62.21;20592.31;5050876;28;20229;-65
2022/09/04 04:40:32;;;;;;;8.90;6.03;;;15.80;99.90;;;-141.84;62.25;20632.97;5050901;28;20310;-64
2022/09/04 04:43:16;;;;;;;6.90;6.03;;;15.80;99.90;;;-141.84;61.60;20592.31;5051025;28;20327;-63
2022/09/04 04:45:56;;;;;;;7.03;6.32;;;15.90;99.90;;;-141.84;61.49;20655.31;5050894;28;20188;-63
2022/09/04 04:49:13;;;;;;;8.63;6.13;;;16.00;99.90;;;-141.84;61.38;20630.94;5051252;28;20276;-64
2022/09/04 04:52:08;;;;;;;6.85;6.22;;;16.00;99.90;;;-141.84;60.81;20653.28;5050991;28;20231;-63
2022/09/04 04:55:05;;;;;;;6.68;6.03;;;16.10;99.90;;;-141.84;60.75;20661.44;5065826;28;20185;-64
2022/09/04 04:57:53;;;;;;;10.85;6.18;;;16.20;99.90;;;-141.84;60.21;20679.72;5062320;28;20200;-63
2022/09/04 05:00:35;;;;;;;8.43;6.53;;;16.20;99.90;;;-141.84;60.09;20663.47;5050836;28;20211;-64
2022/09/04 05:03:19;;;;;;;6.93;6.22;;;16.20;99.90;;;-141.84;60.66;20673.63;5051107;28;20735;-64
2022/09/04 05:06:05;;;;;;;7.57;6.40;;;16.20;99.90;;;-141.84;61.01;20651.25;5050387;28;20233;-63
2022/09/04 05:08:49;;;;;;;7.13;6.00;;;16.20;99.90;;;-141.84;61.32;20673.63;5049972;28;20296;-63
2022/09/04 05:11:31;;;;;;;7.43;6.37;;;16.20;99.90;;;-141.84;61.11;20616.69;5050635;28;20232;-63
2022/09/04 05:14:17;;;;;;;8.20;6.57;;;16.30;99.90;;;-141.84;60.47;20712.25;5050482;28;20734;-64
2022/09/04 05:16:58;;;;;;;7.35;6.53;;;16.30;99.90;;;-141.84;59.64;20716.31;5050340;28;20739;-64
2022/09/04 05:19:35;;;;;;;6.85;6.25;;;16.40;99.90;;;-141.84;60.02;20708.19;5050443;28;20225;-63
2022/09/04 05:22:17;;;;;;;6.70;6.13;;;16.40;99.90;;;-141.84;60.07;20704.13;5051905;28;20229;-63
2022/09/04 05:25:00;;;;;;;7.10;6.40;;;16.40;99.90;;;-141.84;59.66;20695.97;5054549;28;20189;-63
2022/09/04 05:27:52;;;;;;;8.23;6.35;;;16.50;99.90;;;-141.84;59.57;20712.25;5054502;28;20280;-63
2022/09/04 05:30:33;;;;;;;7.43;6.50;;;16.50;99.90;;;-141.84;59.41;20754.94;5046139;28;20217;-63
2022/09/04 05:33:18;;;;;;;7.93;6.53;;;16.60;99.90;;;-141.84;59.22;20750.88;5054311;28;20222;-64
2022/09/04 05:35:56;;;;;;;7.07;6.30;;;16.60;99.90;;;-141.84;59.31;20748.84;5054083;28;20233;-64
2022/09/04 05:38:35;;;;;;;7.43;6.15;;;16.60;99.90;;;-141.84;59.43;20728.50;5053957;28;20704;-64
2022/09/04 05:41:07;;;;;;;7.03;6.30;;;16.70;99.90;;;-141.84;59.34;20752.91;5054099;28;20231;-64
2022/09/04 05:44:01;;;;;;;6.85;6.15;;;16.70;99.90;;;-141.84;59.60;20746.81;5054233;28;20699;-64
2022/09/04 05:46:49;;;;;;;7.72;6.45;;;16.70;99.90;;;-141.84;59.14;20744.78;5054060;28;20237;-64
2022/09/04 05:49:44;;;;;;;9.75;6.80;;;16.70;99.90;;;-141.84;59.26;20740.69;5054207;28;20249;-63
2022/09/04 05:52:39;;;;;;;7.35;6.57;;;16.80;99.90;;;-141.84;59.23;20775.25;5053474;28;20225;-64
2022/09/04 05:55:36;;;;;;;7.10;6.43;;;16.80;99.90;;;-141.84;59.37;20765.09;5073290;28;20220;-64
2022/09/04 05:58:31;;;;;;;9.60;6.82;;;16.90;99.90;;;-141.84;58.81;20756.97;5060924;28;20300;-63
2022/09/04 06:01:22;;;;;;;9.65;7.25;;;16.90;99.90;;;-141.84;58.56;20815.91;5053852;28;20303;-64
2022/09/04 06:04:33;;;;;;;7.10;6.25;;;17.00;99.90;;;-141.84;59.03;20777.28;5053536;28;20186;-64
2022/09/04 06:07:12;;;;;;;6.85;6.15;;;17.00;99.90;;;-141.84;58.82;20795.59;5033604;28;20599;-62
2022/09/04 06:09:58;;;;;;;7.00;6.30;;;17.00;99.90;;;-141.84;58.92;20763.06;5033735;28;20638;-63
2022/09/04 06:13:21;;;;;;;7.28;6.45;;;17.00;99.90;;;-141.84;58.87;20824.06;5034124;28;20179;-65
2022/09/04 06:16:17;;;;;;;7.85;7.05;;;17.00;99.90;;;-141.84;58.62;20817.94;5017263;28;20317;-64
2022/09/04 06:19:09;;;;;;;7.30;6.60;;;17.10;99.90;;;-141.84;58.80;20803.72;5037811;28;20292;-64
2022/09/04 06:22:14;;;;;;;7.07;6.38;;;17.10;99.90;;;-141.84;58.52;20820.00;5052978;28;20228;-63
2022/09/04 06:25:16;;;;;;;6.80;6.20;;;17.20;99.90;;;-141.84;58.37;20862.69;5053368;28;20288;-64
2022/09/04 06:28:13;;;;;;;7.68;6.80;;;17.30;99.90;;;-141.84;57.74;20876.91;5053312;28;20196;-64
2022/09/04 06:30:55;;;;;;;8.05;6.45;;;17.50;99.90;;;-141.84;57.38;20899.28;5053508;28;20214;-64
2022/09/04 06:33:42;;;;;;;9.48;7.38;;;17.60;99.90;;;-141.84;56.41;20966.34;5052334;28;20268;-63
2022/09/04 06:36:42;;;;;;;9.77;6.78;;;17.80;99.90;;;-141.84;55.45;21025.31;5053437;28;20205;-64
2022/09/04 06:39:46;;;;;;;7.47;6.70;;;18.00;99.90;;;-141.84;55.52;21029.38;5053348;28;20699;-64
2022/09/04 06:42:36;;;;;;;7.60;6.90;;;18.20;99.90;;;-141.84;54.99;21015.16;5053145;28;20236;-64
2022/09/04 06:45:22;;;;;;;7.93;7.13;;;18.30;99.90;;;-141.84;54.57;21021.25;5053407;28;20733;-64
2022/09/04 06:48:08;;;;;;;7.05;6.45;;;18.30;99.90;;;-141.84;54.43;21070.03;5053112;28;20235;-64
2022/09/04 06:50:55;;;;;;;7.15;6.55;;;18.40;99.90;;;-141.84;54.29;21078.16;5052570;28;20221;-65
2022/09/04 06:53:41;;;;;;;9.20;6.93;;;18.40;99.90;;;-141.84;53.76;21122.91;5057492;28;20218;-64
2022/09/04 06:56:37;;;;;;;7.72;7.03;;;18.50;99.90;;;-141.84;53.49;21145.25;5072938;28;20256;-64
2022/09/04 06:59:23;;;;;;;7.50;6.70;;;18.70;99.90;;;-141.84;53.60;21094.44;5032390;28;20221;-67
2022/09/04 07:02:16;;;;;;;7.45;6.75;;;18.70;99.90;;;-141.84;53.74;21137.13;5045255;28;20342;-65
2022/09/04 07:04:59;;;;;;;7.28;6.68;;;18.70;99.90;;;-141.84;53.29;21167.63;5052405;28;20720;-64
2022/09/04 07:07:38;;;;;;;8.45;6.57;;;18.80;99.90;;;-141.84;53.12;21185.91;5052209;28;20308;-63
2022/09/04 07:10:14;;;;;;;9.32;7.40;;;18.90;99.90;;;-141.84;53.20;21183.88;5052473;28;20716;-64
2022/09/04 07:13:27;;;;;;;7.50;6.80;;;18.90;99.90;;;-141.84;52.35;21216.41;5052587;28;20181;-64
2022/09/04 07:16:24;;;;;;;7.15;6.38;;;19.10;99.90;;;-141.84;52.60;21234.72;5052495;28;22026;-63
2022/09/04 07:19:31;;;;;;;8.15;6.88;;;19.30;99.90;;;-141.84;51.70;21285.53;5052228;28;20292;-64
2022/09/04 07:22:23;;;;;;;8.18;7.35;;;19.50;99.90;;;-141.84;51.81;21324.19;5052136;28;20231;-63
2022/09/04 07:25:09;;;;;;;8.10;6.70;;;19.60;99.90;;;-141.84;51.43;21348.56;5052075;28;20197;-63
2022/09/04 07:28:02;;;;;;;6.75;6.15;;;19.70;99.90;;;-141.84;51.09;21340.44;5052318;28;20276;-65
2022/09/04 07:30:41;;;;;;;8.10;6.68;;;19.70;99.90;;;-141.84;51.46;21322.13;5052453;28;20572;-63
2022/09/04 07:33:21;;;;;;;7.70;6.90;;;19.60;99.90;;;-141.84;51.50;21303.84;5052149;28;20251;-64
2022/09/04 07:35:59;;;;;;;7.35;6.65;;;19.60;99.90;;;-141.84;51.92;21301.81;5051637;28;20251;-63
2022/09/04 07:38:40;;;;;;;6.90;6.30;;;19.70;99.90;;;-141.84;51.77;21307.91;5051856;28;20225;-64
2022/09/04 07:41:18;;;;;;;6.88;6.38;;;19.70;99.90;;;-141.84;51.88;21330.28;5051913;28;20225;-64
2022/09/04 07:43:57;;;;;;;7.38;6.68;;;19.80;99.90;;;-141.84;51.35;21370.94;5050102;28;20256;-64
2022/09/04 07:46:35;;;;;;;6.82;6.22;;;19.90;99.90;;;-141.84;51.22;21415.66;5051853;28;20312;-64
2022/09/04 07:49:17;;;;;;;6.55;5.88;;;20.00;99.90;;;-141.84;51.28;21446.16;5051682;28;20231;-64
2022/09/04 07:51:56;;;;;;;7.10;6.45;;;20.10;99.90;;;-141.84;50.89;21488.88;5051622;28;20192;-64
2022/09/04 07:54:44;;;;;;;7.20;6.50;;;20.30;99.90;;;-141.84;50.21;21446.16;5065095;28;20652;-64
2022/09/04 07:57:36;;;;;;;7.45;6.40;;;20.40;99.90;;;-141.84;49.76;21531.56;5066005;28;20225;-63
2022/09/04 08:00:14;;;;;;;7.00;6.35;;;20.50;99.90;;;-141.84;49.91;21539.69;5051584;28;20223;-64
2022/09/04 08:03:15;;;;;;;6.97;6.30;;;20.70;99.90;;;-141.84;49.56;21533.59;5051484;28;20233;-64
2022/09/04 08:05:54;;;;;;;7.05;6.35;;;20.70;99.90;;;-141.84;49.00;21560.03;5049223;28;20335;-65
2022/09/04 08:09:17;;;;;;;7.15;6.10;;;20.80;99.90;;;-141.84;48.75;21584.44;5051289;28;20231;-64
2022/09/04 08:12:30;;;;;;;6.63;6.03;;;20.90;99.90;;;-141.84;48.96;21606.78;5047215;28;20312;-64
2022/09/04 08:15:18;;;;;;;7.13;6.43;;;21.10;99.90;;;-141.84;49.00;21619.00;5051170;28;20225;-64
2022/09/04 08:18:20;;;;;;;6.97;6.13;;;21.00;99.90;;;-141.84;48.38;21669.81;5051570;28;20251;-64
2022/09/04 08:20:58;;;;;;;6.63;6.13;;;21.20;99.90;;;-141.84;47.74;21753.19;5030815;28;20287;-64
2022/09/04 08:23:56;;;;;;;7.28;6.63;;;21.40;99.90;;;-141.84;46.99;21834.53;5031283;28;20316;-64
2022/09/04 08:26:44;;;;;;;8.13;6.30;;;21.70;99.90;;;-141.84;47.03;21842.66;5031304;28;20645;-64
2022/09/04 08:29:42;;;;;;;7.07;6.43;;;21.90;99.90;;;-141.84;45.69;21940.25;5031162;28;20295;-64
2022/09/04 08:32:43;;;;;;;6.57;5.97;;;22.20;99.90;;;-141.84;45.49;21913.84;5031355;28;20232;-64
2022/09/04 08:35:25;;;;;;;7.70;6.35;;;22.20;99.90;;;-141.84;46.90;21852.81;5022037;28;20313;-64
2022/09/04 08:38:20;;;;;;;6.78;6.18;;;22.10;99.90;;;-141.84;46.75;21877.22;5031242;28;20325;-64
2022/09/04 08:41:36;;;;;;;7.00;6.03;;;22.20;99.90;;;-141.84;46.86;21830.47;5031000;28;20229;-64
2022/09/04 08:44:55;;;;;;;6.53;5.82;;;22.30;99.90;;;-141.84;46.53;21875.19;5030579;28;20281;-64
2022/09/04 08:48:09;;;;;;;6.40;5.80;;;22.30;99.90;;;-141.84;47.07;21832.50;5027887;28;20759;-64
2022/09/04 08:51:46;;;;;;;6.05;5.45;;;22.30;99.90;;;-141.84;47.14;21860.97;5049523;28;20213;-65
2022/09/04 08:55:06;;;;;;;6.03;5.43;;;22.30;99.90;;;-141.84;47.25;21869.09;4956608;28;20220;-65
2022/09/04 08:58:21;;;;;;;5.53;5.03;;;22.30;99.90;;;-141.84;47.03;21848.75;5044481;28;20722;-66
2022/09/04 09:01:35;;;;;;;6.15;5.65;;;22.30;99.90;;;-141.84;46.86;21926.03;5049814;28;20200;-64
2022/09/04 09:04:48;;;;;;;5.63;5.13;;;22.40;99.90;;;-141.84;46.01;21997.19;5049129;28;20233;-64
2022/09/04 09:08:21;;;;;;;5.22;4.82;;;22.70;99.90;;;-141.84;45.62;22015.50;5048296;28;20657;-64
2022/09/04 09:11:49;;;;;;;5.97;5.38;;;22.90;99.90;;;-141.84;45.85;22033.81;4988042;28;20751;-65
2022/09/04 09:15:24;;;;;;;5.60;5.10;;;22.80;99.90;;;-141.84;45.72;22121.25;4986653;28;20317;-64
2022/09/04 09:18:02;;;;;;;5.90;5.20;;;23.00;99.90;;;-141.84;45.06;22202.59;5006511;28;20709;-64
2022/09/04 09:20:48;;;;;;;5.45;4.97;;;23.30;99.90;;;-141.84;44.33;22279.88;5048897;28;20244;-65
2022/09/04 09:23:20;;;;;;;6.00;5.50;;;23.70;99.90;;;-141.84;44.65;22265.63;5050662;28;20308;-64
2022/09/04 09:25:52;;;;;;;6.20;5.60;;;23.80;99.90;;;-141.84;44.43;22239.19;5050623;28;20224;-64
2022/09/04 09:29:24;;;;;;;5.72;5.20;;;23.80;99.90;;;-141.84;44.59;22229.03;5050624;28;20239;-64
2022/09/04 09:32:56;;;;;;;5.65;5.07;;;23.60;99.90;;;-141.84;44.24;22298.16;5050375;28;20233;-65
2022/09/04 09:36:18;;;;;;;5.68;5.10;;;23.70;99.90;;;-141.84;43.84;22241.22;5039327;28;20223;-63
2022/09/04 09:39:32;;;;;;;7.97;5.55;;;23.70;99.90;;;-141.84;45.17;22100.91;5046948;28;20251;-64
2022/09/04 09:42:30;;;;;;;5.80;5.30;;;23.50;99.90;;;-141.84;45.13;22157.84;5049994;28;20213;-64
2022/09/04 09:45:50;;;;;;;6.13;5.47;;;23.30;99.90;;;-141.84;45.82;22041.94;5050249;28;20324;-63
2022/09/04 09:48:57;;;;;;;6.40;5.80;;;23.10;99.90;;;-141.84;47.36;21911.78;5050591;28;20221;-64
2022/09/04 09:52:07;;;;;;;7.72;6.15;;;22.70;99.90;;;-141.84;47.65;21860.97;5050176;28;20676;-64
2022/09/04 09:55:21;;;;;;;6.72;6.03;;;22.50;99.90;;;-141.84;47.60;21881.28;5065178;28;20734;-63
2022/09/04 09:59:00;;;;;;;6.47;4.82;;;22.50;99.90;;;-141.84;47.99;21846.72;5070397;28;20187;-64
2022/09/04 10:02:07;;;;;;;5.70;5.20;;;22.50;99.90;;;-141.84;47.74;21858.94;5054878;28;20251;-65
2022/09/04 10:05:18;;;;;;;6.03;5.43;;;22.50;99.90;;;-141.84;47.82;21877.22;5069777;28;20311;-63
2022/09/04 10:08:37;;;;;;;5.90;5.40;;;22.50;99.90;;;-141.84;48.47;21850.78;5071357;28;20247;-64
2022/09/04 10:11:35;;;;;;;5.55;5.03;;;22.40;99.90;;;-141.84;48.53;21834.53;5073456;28;20220;-64
2022/09/04 10:14:53;;;;;;;6.25;5.00;;;22.50;99.90;;;-141.84;47.79;21867.06;5073738;28;20229;-63
2022/09/04 10:18:17;;;;;;;5.40;4.90;;;22.40;99.90;;;-141.84;48.16;21838.59;5073274;28;20235;-63
2022/09/04 10:21:21;;;;;;;5.05;4.63;;;22.40;99.90;;;-141.84;47.81;21877.22;5020978;28;20279;-63
2022/09/04 10:24:24;;;;;;;4.78;4.38;;;22.40;99.90;;;-141.84;47.26;21891.47;5010877;28;20225;-63
2022/09/04 10:27:37;;;;;;;4.80;4.15;;;22.60;99.90;;;-141.84;47.10;21913.84;5029230;28;20229;-64
2022/09/04 10:30:17;;;;;;;4.70;3.83;;;22.70;99.90;;;-141.84;46.70;21913.84;5033818;28;20693;-64
2022/09/04 10:33:11;;;;;;;4.13;3.83;;;22.70;99.90;;;-141.84;45.96;21974.84;5033348;28;20232;-64
2022/09/04 10:35:57;;;;;;;4.93;4.20;;;22.80;99.90;;;-141.84;45.79;21952.47;5032916;28;20237;-64
2022/09/04 10:40:34;;;;;;;4.72;4.38;;;22.80;99.90;;;-141.84;46.23;21942.31;5034049;28;20305;-64
2022/09/04 10:41:57;;;;;;;5.10;4.30;;;22.80;99.90;;;-141.84;45.21;22019.56;5033191;28;20225;-65
2022/09/04 10:44:47;;;;;;;5.90;4.05;;;22.90;99.90;;;-141.84;44.83;21985.00;5033276;28;20230;-64
2022/09/04 10:47:37;;;;;;;4.85;4.45;;;22.90;99.90;;;-141.84;44.97;21999.25;5049248;28;20320;-65
2022/09/04 10:50:23;;;;;;;4.68;4.28;;;23.00;99.90;;;-141.84;45.19;22011.44;5052615;28;20229;-64
2022/09/04 10:53:34;;;;;;;4.50;4.15;;;23.10;99.90;;;-141.84;43.99;22064.31;5053272;28;20601;-63
2022/09/04 10:56:18;;;;;;;5.28;4.78;;;23.20;99.90;;;-141.84;43.25;22123.28;5068670;28;20231;-67
2022/09/04 10:59:29;;;;;;;4.78;4.38;;;23.40;99.90;;;-141.84;43.04;22155.81;5054250;28;20251;-65
2022/09/04 11:02:40;;;;;;;4.85;4.45;;;23.60;99.90;;;-141.84;43.11;22251.41;5053286;28;20229;-66
2022/09/04 11:05:41;;;;;;;6.55;4.47;;;23.70;99.90;;;-141.84;42.80;22180.22;5052354;28;20241;-66
2022/09/04 11:08:38;;;;;;;5.35;4.90;;;23.80;99.90;;;-141.84;42.23;22200.56;5052473;28;20225;-64
2022/09/04 11:11:45;;;;;;;5.63;4.68;;;23.80;99.90;;;-141.84;42.59;22196.50;5051600;28;20383;-66
2022/09/04 11:15:00;;;;;;;4.78;4.38;;;23.80;99.90;;;-141.84;43.07;22178.19;5050363;28;20217;-66
2022/09/04 11:18:13;;;;;;;5.53;5.03;;;23.80;99.90;;;-141.84;43.38;22159.88;5051897;28;20780;-65
2022/09/04 11:21:33;;;;;;;5.88;4.60;;;23.80;99.90;;;-141.84;42.68;22239.19;5051244;28;20428;-65
2022/09/04 11:25:05;;;;;;;4.35;3.95;;;23.90;99.90;;;-141.84;42.16;22257.50;5051269;28;20259;-66
2022/09/04 11:28:32;;;;;;;4.82;4.00;;;24.00;99.90;;;-141.84;42.23;22216.81;5050324;28;20221;-66
2022/09/04 11:31:34;;;;;;;4.65;4.25;;;24.00;99.90;;;-141.84;41.92;22218.84;5000787;28;20575;-66
2022/09/04 11:34:57;;;;;;;5.18;4.68;;;24.00;99.90;;;-141.84;40.86;22273.78;4991164;28;20234;-64
2022/09/04 11:37:58;;;;;;;4.53;4.13;;;24.20;99.90;;;-141.84;41.43;22304.28;5051871;28;20231;-66
2022/09/04 11:41:27;;;;;;;4.93;4.53;;;24.20;99.90;;;-141.84;41.53;22202.59;5032464;28;20601;-65
2022/09/04 11:44:51;;;;;;;5.15;4.60;;;24.10;99.90;;;-141.84;41.75;22180.22;5030908;28;20236;-65
2022/09/04 11:47:48;;;;;;;5.65;4.63;;;24.00;99.90;;;-141.84;42.15;22180.22;5052308;28;20229;-65
2022/09/04 11:50:36;;;;;;;5.10;4.60;;;23.90;99.90;;;-141.84;41.99;22192.44;5051671;28;20226;-67